Time;durP1;ratioP1;P1;durP2;ratioP2;P2;SDS_P1;SDS_P2;PMS_P1;PMS_P2;Temp;Humidity;BMP_temperature;BMP_pressure;BME280_temperature;BME280_humidity;BME280_pressure;Samples;Min_cycle;Max_cycle;Signal;HPM_P1;HPM_P2
2023/10/16 00:01:35;;;;;;;;;;;;;;;4.72;98.81;102351.88;5056762;28;19928;-68
2023/10/16 00:04:00;;;;;;;;;;;;;;;4.77;98.98;102350.34;5073099;28;19924;-68
2023/10/16 00:06:26;;;;;;;;;;;;;;;4.80;99.86;102350.47;5061417;28;19950;-68
2023/10/16 00:09:00;;;;;;;;;;;;;;;4.82;99.23;102346.19;5075354;28;20363;-68
2023/10/16 00:11:25;;;;;;;;;;;;;;;4.86;99.63;102345.47;5074109;28;19969;-68
2023/10/16 00:13:52;;;;;;;;;;;;;;;4.90;100.00;102338.69;5076486;28;19916;-68
2023/10/16 00:16:18;;;;;;;;;;;;;;;4.93;99.57;102345.69;5084901;28;20291;-68
2023/10/16 00:18:45;;;;;;;;;;;;;;;4.95;100.00;102342.31;5072415;28;19919;-67
2023/10/16 00:21:11;;;;;;;;;;;;;;;4.97;100.00;102337.19;5093386;28;20033;-67
2023/10/16 00:23:39;;;;;;;;;;;;;;;4.97;99.86;102342.38;5078340;28;19928;-67
2023/10/16 00:26:08;;;;;;;;;;;;;;;4.97;100.00;102345.88;5056772;28;19927;-68
2023/10/16 00:28:33;;;;;;;;;;;;;;;4.99;99.87;102346.81;5063989;28;20283;-67
2023/10/16 00:30:59;;;;;;;;;;;;;;;5.01;100.00;102352.06;5060466;28;19916;-68
2023/10/16 00:33:24;;;;;;;;;;;;;;;5.01;100.00;102346.84;5067889;28;20211;-68
2023/10/16 00:35:49;;;;;;;;;;;;;;;5.01;100.00;102345.16;5075218;28;19916;-68
2023/10/16 00:38:15;;;;;;;;;;;;;;;5.01;100.00;102346.84;5078902;28;19926;-67
2023/10/16 00:40:40;;;;;;;;;;;;;;;5.00;99.83;102347.72;5057801;28;20380;-67
2023/10/16 00:43:11;;;;;;;;;;;;;;;4.97;99.64;102344.97;5057397;28;19920;-67
2023/10/16 00:45:45;;;;;;;;;;;;;;;4.92;99.45;102343.94;5058331;28;19977;-67
2023/10/16 00:48:11;;;;;;;;;;;;;;;4.85;99.79;102346.31;5079553;28;19920;-67
2023/10/16 00:50:38;;;;;;;;;;;;;;;4.81;99.90;102348.75;5051059;28;20306;-66
2023/10/16 00:53:07;;;;;;;;;;;;;;;4.78;99.72;102349.50;5051423;28;19927;-67
2023/10/16 00:55:33;;;;;;;;;;;;;;;4.77;100.00;102357.25;5081327;28;19924;-67
2023/10/16 00:58:00;;;;;;;;;;;;;;;4.74;99.91;102351.94;5056529;28;19924;-67
2023/10/16 01:00:26;;;;;;;;;;;;;;;4.71;100.00;102344.91;5073304;28;20648;-67
2023/10/16 01:02:51;;;;;;;;;;;;;;;4.67;100.00;102340.47;5054144;28;19920;-67
2023/10/16 01:05:23;;;;;;;;;;;;;;;4.66;100.00;102344.75;5066817;28;20439;-67
2023/10/16 01:07:49;;;;;;;;;;;;;;;4.66;100.00;102349.94;5076370;28;19951;-67
2023/10/16 01:10:14;;;;;;;;;;;;;;;4.73;100.00;102343.28;5089466;28;19959;-67
2023/10/16 01:12:48;;;;;;;;;;;;;;;4.76;100.00;102342.50;5061935;28;19920;-68
2023/10/16 01:15:15;;;;;;;;;;;;;;;4.74;100.00;102336.34;5091410;28;19916;-68
2023/10/16 01:17:41;;;;;;;;;;;;;;;4.70;100.00;102335.38;5055037;28;19931;-67
2023/10/16 01:20:07;;;;;;;;;;;;;;;4.68;100.00;102332.72;5048705;28;19921;-67
2023/10/16 01:22:34;;;;;;;;;;;;;;;4.68;100.00;102324.03;5071922;28;20463;-67
2023/10/16 01:25:00;;;;;;;;;;;;;;;4.67;100.00;102320.56;5071315;28;20333;-67
2023/10/16 01:27:26;;;;;;;;;;;;;;;4.67;99.66;102319.69;5060220;28;19920;-67
2023/10/16 01:29:52;;;;;;;;;;;;;;;4.65;100.00;102322.22;5071578;28;19972;-67
2023/10/16 01:32:18;;;;;;;;;;;;;;;4.62;100.00;102319.50;5064815;28;20022;-67
2023/10/16 01:34:46;;;;;;;;;;;;;;;4.61;100.00;102324.63;5064339;28;20073;-68
2023/10/16 01:37:13;;;;;;;;;;;;;;;4.57;100.00;102323.66;5052347;28;19963;-68
2023/10/16 01:39:53;;;;;;;;;;;;;;;4.57;99.77;102327.94;5054854;28;19924;-68
2023/10/16 01:42:19;;;;;;;;;;;;;;;4.52;100.00;102317.41;5067852;28;19920;-67
2023/10/16 01:44:46;;;;;;;;;;;;;;;4.50;100.00;102319.94;5087997;28;19935;-67
2023/10/16 01:47:15;;;;;;;;;;;;;;;4.49;100.00;102320.75;5072208;28;19916;-68
2023/10/16 01:49:42;;;;;;;;;;;;;;;4.48;100.00;102313.81;5068800;28;20012;-68
2023/10/16 01:52:11;;;;;;;;;;;;;;;4.47;100.00;102313.78;5054378;28;20026;-68
2023/10/16 01:54:40;;;;;;;;;;;;;;;4.43;100.00;102315.34;5059821;28;19920;-68
2023/10/16 01:57:10;;;;;;;;;;;;;;;4.40;100.00;102307.47;5060499;28;20012;-67
2023/10/16 01:59:38;;;;;;;;;;;;;;;4.41;100.00;102303.13;5057669;28;20405;-68
2023/10/16 02:02:05;;;;;;;;;;;;;;;4.42;100.00;102304.91;5084052;28;19923;-68
2023/10/16 02:04:30;;;;;;;;;;;;;;;4.42;100.00;102303.19;5056262;28;19920;-68
2023/10/16 02:06:55;;;;;;;;;;;;;;;4.41;100.00;102313.53;5072138;28;19923;-68
2023/10/16 02:09:23;;;;;;;;;;;;;;;4.40;100.00;102309.19;5107454;28;20367;-68
2023/10/16 02:11:48;;;;;;;;;;;;;;;4.36;100.00;102308.16;5077405;28;20014;-68
2023/10/16 02:14:14;;;;;;;;;;;;;;;4.33;100.00;102303.75;5065415;28;20022;-68
2023/10/16 02:16:41;;;;;;;;;;;;;;;4.31;100.00;102309.69;5055721;28;20390;-68
2023/10/16 02:19:07;;;;;;;;;;;;;;;4.27;100.00;102303.53;5072527;28;19924;-68
2023/10/16 02:21:32;;;;;;;;;;;;;;;4.23;100.00;102298.16;5078969;28;19993;-68
2023/10/16 02:24:03;;;;;;;;;;;;;;;4.21;100.00;102297.19;5073143;28;19920;-66
2023/10/16 02:26:30;;;;;;;;;;;;;;;4.19;100.00;102294.56;5094822;28;19916;-66
2023/10/16 02:28:58;;;;;;;;;;;;;;;4.22;100.00;102301.56;5075820;28;20356;-66
2023/10/16 02:31:24;;;;;;;;;;;;;;;4.19;100.00;102299.75;5054333;28;19928;-66
2023/10/16 02:34:09;;;;;;;;;;;;;;;4.22;100.00;102298.97;5075865;28;19915;-66
2023/10/16 02:36:35;;;;;;;;;;;;;;;4.24;100.00;102293.03;5056201;28;19932;-66
2023/10/16 02:39:00;;;;;;;;;;;;;;;4.25;100.00;102291.31;5069890;28;19927;-66
2023/10/16 02:41:26;;;;;;;;;;;;;;;4.26;100.00;102287.91;5072417;28;19945;-67
2023/10/16 02:43:51;;;;;;;;;;;;;;;4.27;100.00;102285.34;5057256;28;19922;-67
2023/10/16 02:46:21;;;;;;;;;;;;;;;4.29;100.00;102290.59;5072973;28;19942;-68
2023/10/16 02:48:47;;;;;;;;;;;;;;;4.29;100.00;102290.59;5055021;28;20268;-68
2023/10/16 02:51:16;;;;;;;;;;;;;;;4.28;100.00;102288.81;5055208;28;19920;-68
2023/10/16 02:53:42;;;;;;;;;;;;;;;4.27;100.00;102289.66;5055439;28;19920;-68
2023/10/16 02:56:08;;;;;;;;;;;;;;;4.26;100.00;102293.97;5055931;28;19978;-68
2023/10/16 02:58:34;;;;;;;;;;;;;;;4.26;100.00;102290.50;5070583;28;19943;-68
2023/10/16 03:01:00;;;;;;;;;;;;;;;4.25;100.00;102294.81;5080312;28;19921;-68
2023/10/16 03:03:26;;;;;;;;;;;;;;;4.24;100.00;102297.31;5069281;28;20025;-68
2023/10/16 03:05:56;;;;;;;;;;;;;;;4.22;100.00;102288.59;5072935;28;20360;-66
2023/10/16 03:08:22;;;;;;;;;;;;;;;4.19;100.00;102296.28;5056474;28;20001;-66
2023/10/16 03:10:51;;;;;;;;;;;;;;;4.15;100.00;102296.16;5087958;28;19912;-66
2023/10/16 03:13:18;;;;;;;;;;;;;;;4.13;100.00;102294.31;5079376;28;19928;-66
2023/10/16 03:15:47;;;;;;;;;;;;;;;4.10;100.00;102300.28;5073049;28;19921;-66
2023/10/16 03:18:22;;;;;;;;;;;;;;;4.10;100.00;102295.09;5074971;28;19916;-66
2023/10/16 03:20:48;;;;;;;;;;;;;;;4.11;100.00;102296.88;5080616;28;19920;-67
2023/10/16 03:23:14;;;;;;;;;;;;;;;4.15;100.00;102292.66;5072670;28;19929;-67
2023/10/16 03:28:08;;;;;;;;;;;;;;;4.20;100.00;102296.31;5098118;28;20263;-66
2023/10/16 03:30:33;;;;;;;;;;;;;;;4.20;100.00;102290.28;5066198;28;19916;-66
2023/10/16 03:32:59;;;;;;;;;;;;;;;4.20;100.00;102285.06;5081643;28;19924;-67
2023/10/16 03:35:31;;;;;;;;;;;;;;;4.22;100.00;102288.59;5074169;28;20418;-68
2023/10/16 03:37:57;;;;;;;;;;;;;;;4.23;100.00;102285.19;5071233;28;19924;-68
2023/10/16 03:40:24;;;;;;;;;;;;;;;4.23;100.00;102291.25;5101570;28;19923;-68
2023/10/16 03:42:55;;;;;;;;;;;;;;;4.22;100.00;102288.59;5095474;28;19916;-66
2023/10/16 03:45:21;;;;;;;;;;;;;;;4.20;100.00;102285.94;5075535;28;19916;-67
2023/10/16 03:47:51;;;;;;;;;;;;;;;4.20;100.00;102287.66;5056093;28;20287;-67
2023/10/16 03:50:23;;;;;;;;;;;;;;;4.15;100.00;102278.00;5091639;28;19920;-68
2023/10/16 03:52:48;;;;;;;;;;;;;;;4.11;100.00;102278.72;5077586;28;19920;-68
2023/10/16 03:55:22;;;;;;;;;;;;;;;4.08;100.00;102282.88;5049974;28;20016;-67
2023/10/16 03:57:50;;;;;;;;;;;;;;;4.05;100.00;102280.16;5059119;28;20429;-68
2023/10/16 04:00:18;;;;;;;;;;;;;;;4.02;100.00;102283.53;5052814;28;19920;-67
2023/10/16 04:02:44;;;;;;;;;;;;;;;4.02;100.00;102285.25;5078984;28;20069;-67
2023/10/16 04:05:29;;;;;;;;;;;;;;;4.00;100.00;102285.19;5064326;28;20015;-66
2023/10/16 04:07:55;;;;;;;;;;;;;;;3.97;100.00;102274.69;5067369;28;20027;-66
2023/10/16 04:10:29;;;;;;;;;;;;;;;3.97;100.00;102282.47;5091047;28;20414;-67
2023/10/16 04:12:58;;;;;;;;;;;;;;;3.97;100.00;102277.28;5063243;28;20416;-66
2023/10/16 04:31:57;;;;;;;;;;;;;;;4.16;100.00;102266.78;5047774;28;19927;-66
2023/10/16 04:50:30;;;;;;;;;;;;;;;4.34;100.00;102248.41;5089805;28;20460;-66
2023/10/16 05:01:19;;;;;;;;;;;;;;;4.24;100.00;102243.72;5091355;28;19916;-66
2023/10/16 05:14:22;;;;;;;;;;;;;;;4.31;100.00;102242.22;5079375;28;19928;-67
2023/10/16 05:19:46;;;;;;;;;;;;;;;4.39;100.00;102239.91;5047347;28;19919;-66
2023/10/16 06:14:12;;;;;;;;;;;;;;;4.91;100.00;102246.06;5092931;28;19999;-68
2023/10/16 06:16:48;;;;;;;;;;;;;;;4.94;100.00;102236.66;5050486;28;20299;-68
2023/10/16 06:19:17;;;;;;;;;;;;;;;4.98;100.00;102235.03;5067669;28;20321;-68
2023/10/16 06:21:50;;;;;;;;;;;;;;;5.00;100.00;102231.66;5062395;28;19920;-67
2023/10/16 06:24:25;;;;;;;;;;;;;;;5.01;100.00;102230.84;5056004;28;20036;-68
2023/10/16 06:26:51;;;;;;;;;;;;;;;5.02;100.00;102232.59;5071861;28;20011;-67
2023/10/16 06:29:17;;;;;;;;;;;;;;;5.04;100.00;102230.03;5062891;28;19927;-67
2023/10/16 06:31:49;;;;;;;;;;;;;;;5.09;100.00;102233.69;5061806;28;19980;-67
2023/10/16 06:34:15;;;;;;;;;;;;;;;5.13;100.00;102235.56;5072550;28;19942;-68
2023/10/16 06:36:41;;;;;;;;;;;;;;;5.18;100.00;102233.09;5076073;28;20271;-68
2023/10/16 06:39:19;;;;;;;;;;;;;;;5.25;100.00;102244.59;5074128;28;19924;-68
2023/10/16 06:41:45;;;;;;;;;;;;;;;5.31;100.00;102237.84;5096727;28;20345;-67
2023/10/16 06:44:16;;;;;;;;;;;;;;;5.38;100.00;102244.16;5078000;28;19924;-67
2023/10/16 06:46:41;;;;;;;;;;;;;;;5.47;100.00;102230.56;5072288;28;19978;-67
2023/10/16 06:49:09;;;;;;;;;;;;;;;5.58;100.00;102234.38;5059577;28;19920;-67
2023/10/16 06:51:35;;;;;;;;;;;;;;;5.71;100.00;102233.91;5075073;28;19956;-68
2023/10/16 06:54:01;;;;;;;;;;;;;;;5.88;100.00;102236.16;5060041;28;20008;-68
2023/10/16 06:56:34;;;;;;;;;;;;;;;6.11;100.00;102239.47;5057432;28;19999;-68
2023/10/16 06:58:59;;;;;;;;;;;;;;;6.40;100.00;102242.88;5078404;28;19971;-67
2023/10/16 07:01:27;;;;;;;;;;;;;;;6.62;100.00;102247.81;5078612;28;19927;-67
2023/10/16 07:03:56;;;;;;;;;;;;;;;6.70;100.00;102247.19;5074766;28;19931;-67
2023/10/16 07:06:32;;;;;;;;;;;;;;;6.74;100.00;102242.94;5080823;28;19935;-69
2023/10/16 07:08:57;;;;;;;;;;;;;;;6.72;100.00;102244.63;5078427;28;20371;-68
2023/10/16 07:11:24;;;;;;;;;;;;;;;6.71;100.00;102238.53;5074992;28;19927;-67
2023/10/16 07:13:49;;;;;;;;;;;;;;;6.74;100.00;102237.75;5098438;28;19968;-67
2023/10/16 07:16:15;;;;;;;;;;;;;;;6.75;100.00;102243.00;5100337;28;20010;-67
2023/10/16 07:18:43;;;;;;;;;;;;;;;6.78;100.00;102236.97;5079188;28;19916;-67
2023/10/16 07:21:10;;;;;;;;;;;;;;;6.82;100.00;102238.81;5074260;28;19996;-67
2023/10/16 07:23:36;;;;;;;;;;;;;;;6.88;100.00;102236.38;5054511;28;19920;-67
2023/10/16 07:26:06;;;;;;;;;;;;;;;7.15;100.00;102237.91;5079580;28;19916;-67
2023/10/16 07:28:32;;;;;;;;;;;;;;;7.61;100.00;102232.91;5090460;28;19912;-67
2023/10/16 07:30:59;;;;;;;;;;;;;;;8.17;100.00;102245.41;5078567;28;19912;-67
2023/10/16 07:33:24;;;;;;;;;;;;;;;8.77;99.22;102235.28;5074944;28;19928;-67
2023/10/16 07:35:51;;;;;;;;;;;;;;;9.42;97.06;102241.59;5057369;28;20268;-67
2023/10/16 07:38:20;;;;;;;;;;;;;;;10.16;96.96;102245.25;5056521;28;19931;-68
2023/10/16 07:40:51;;;;;;;;;;;;;;;10.89;96.52;102236.47;5096117;28;19969;-68
2023/10/16 07:43:17;;;;;;;;;;;;;;;11.39;94.79;102242.97;5091927;28;19916;-68
2023/10/16 07:45:44;;;;;;;;;;;;;;;11.84;93.57;102236.28;5074699;28;20324;-69
2023/10/16 07:48:22;;;;;;;;;;;;;;;12.53;92.51;102230.44;5093992;28;20007;-69
2023/10/16 07:50:48;;;;;;;;;;;;;;;13.74;90.86;102236.59;5083757;28;20014;-69
2023/10/16 07:53:17;;;;;;;;;;;;;;;14.72;86.71;102234.41;5086203;28;20002;-68
2023/10/16 07:55:51;;;;;;;;;;;;;;;14.88;86.01;102233.44;5080077;28;19926;-68
2023/10/16 07:58:23;;;;;;;;;;;;;;;14.90;85.49;102236.06;5084233;28;19955;-68
2023/10/16 08:01:16;;;;;;;;;;;;;;;14.90;84.18;102242.19;5072004;28;19928;-68
2023/10/16 08:03:42;;;;;;;;;;;;;;;15.03;83.23;102247.41;5063858;28;19935;-68
2023/10/16 08:06:17;;;;;;;;;;;;;;;15.25;82.05;102242.78;5099568;28;19995;-68
2023/10/16 08:08:48;;;;;;;;;;;;;;;15.52;81.57;102252.22;5090602;28;19915;-68
2023/10/16 08:11:18;;;;;;;;;;;;;;;15.77;80.52;102249.31;5084926;28;19931;-68
2023/10/16 08:13:52;;;;;;;;;;;;;;;15.90;80.03;102251.00;5066889;28;19917;-68
2023/10/16 08:16:24;;;;;;;;;;;;;;;15.90;79.68;102251.00;5076878;28;19938;-68
2023/10/16 08:18:51;;;;;;;;;;;;;;;15.91;79.34;102251.84;5057853;28;20300;-69
2023/10/16 08:21:24;;;;;;;;;;;;;;;15.85;78.70;102247.50;5077155;28;19959;-70
2023/10/16 08:23:56;;;;;;;;;;;;;;;15.65;79.08;102250.34;5075845;28;19916;-69
2023/10/16 08:26:29;;;;;;;;;;;;;;;15.64;79.78;102245.94;5067661;28;19920;-68
2023/10/16 08:28:55;;;;;;;;;;;;;;;15.43;79.77;102239.13;5075719;28;19974;-68
2023/10/16 08:31:24;;;;;;;;;;;;;;;15.14;79.83;102242.91;5055569;28;19923;-68
2023/10/16 08:33:50;;;;;;;;;;;;;;;15.03;78.64;102242.13;5059045;28;19920;-68
2023/10/16 08:36:18;;;;;;;;;;;;;;;15.09;80.68;102241.19;5066020;28;19920;-68
2023/10/16 08:38:52;;;;;;;;;;;;;;;14.95;79.81;102242.16;5086496;28;19920;-68
2023/10/16 08:41:23;;;;;;;;;;;;;;;14.94;79.88;102232.50;5072050;28;20456;-69
2023/10/16 08:44:03;;;;;;;;;;;;;;;15.37;79.20;102239.16;5078750;28;20333;-68
2023/10/16 08:46:34;;;;;;;;;;;;;;;15.67;78.71;102234.47;5077321;28;20446;-68
2023/10/16 08:49:01;;;;;;;;;;;;;;;15.97;78.29;102235.03;5081164;28;19977;-68
2023/10/16 08:51:30;;;;;;;;;;;;;;;16.04;79.03;102242.00;5082431;28;19916;-69
2023/10/16 08:53:59;;;;;;;;;;;;;;;16.08;77.73;102241.94;5056696;28;19935;-70
2023/10/16 08:56:24;;;;;;;;;;;;;;;16.42;77.08;102245.91;5058538;28;19924;-70
2023/10/16 08:58:55;;;;;;;;;;;;;;;16.96;76.38;102243.38;5045816;28;19924;-70
2023/10/16 09:01:23;;;;;;;;;;;;;;;16.82;74.96;102242.69;5071545;28;19966;-69
2023/10/16 09:03:50;;;;;;;;;;;;;;;16.57;74.64;102243.06;5066866;28;20359;-69
2023/10/16 09:06:22;;;;;;;;;;;;;;;16.38;74.94;102252.16;5070607;28;19952;-70
2023/10/16 09:08:48;;;;;;;;;;;;;;;16.34;75.47;102247.81;5073499;28;19912;-70
2023/10/16 09:11:16;;;;;;;;;;;;;;;16.26;78.03;102253.19;5081585;28;20320;-70
2023/10/16 09:13:49;;;;;;;;;;;;;;;16.04;79.67;102256.09;5080239;28;20275;-70
2023/10/16 09:16:15;;;;;;;;;;;;;;;15.51;76.21;102250.47;5076314;28;20258;-70
2023/10/16 09:18:40;;;;;;;;;;;;;;;15.15;75.60;102249.91;5081292;28;20374;-70
2023/10/16 09:21:26;;;;;;;;;;;;;;;14.84;78.23;102247.53;5076538;28;19927;-70
2023/10/16 09:23:58;;;;;;;;;;;;;;;14.53;79.83;102242.41;5072663;28;20006;-69
2023/10/16 09:26:25;;;;;;;;;;;;;;;14.39;79.18;102244.25;5072852;28;19920;-68
2023/10/16 09:28:55;;;;;;;;;;;;;;;14.62;79.40;102245.91;5078373;28;19912;-69
2023/10/16 09:31:21;;;;;;;;;;;;;;;15.35;77.69;102239.19;5089076;28;20364;-70
2023/10/16 09:33:48;;;;;;;;;;;;;;;16.27;76.52;102242.56;5093242;28;19988;-70
2023/10/16 09:36:23;;;;;;;;;;;;;;;17.03;75.34;102238.00;5059782;28;19927;-70
2023/10/16 09:38:51;;;;;;;;;;;;;;;17.47;74.43;102239.00;5053277;28;19928;-70
2023/10/16 09:44:21;;;;;;;;;;;;;;;19.21;70.78;102250.31;5080192;28;19919;-71
2023/10/16 09:49:14;;;;;;;;;;;;;;;20.27;62.81;102257.16;5058612;28;19916;-69
2023/10/16 09:51:40;;;;;;;;;;;;;;;19.81;66.63;102247.84;5060627;28;19919;-69
2023/10/16 09:54:09;;;;;;;;;;;;;;;19.30;67.19;102251.84;5051387;28;20061;-69
2023/10/16 09:56:38;;;;;;;;;;;;;;;18.78;67.20;102251.31;5073928;28;20298;-69
2023/10/16 09:59:22;;;;;;;;;;;;;;;18.25;70.43;102255.16;5086357;28;19923;-69
2023/10/16 10:01:51;;;;;;;;;;;;;;;17.38;68.50;102255.03;5084762;28;19915;-70
2023/10/16 10:04:24;;;;;;;;;;;;;;;17.12;71.80;102253.72;5084194;28;19916;-70
2023/10/16 10:06:53;;;;;;;;;;;;;;;16.86;73.93;102240.88;5093185;28;19998;-70
2023/10/16 10:14:38;;;;;;;;;;;;;;;16.31;72.97;102247.84;4287168;22;19932;-70
2023/10/16 10:29:48;;;;;;;;;;;;;;;17.52;70.28;102245.06;5142622;22;19924;-70
2023/10/16 10:32:32;;;;;;;;;;;;;;;17.58;70.18;102238.78;5331700;22;19955;-69
2023/10/16 10:43:16;;;;;;;;;;;;;;;18.38;67.58;102233.66;1792821;22;20387;-69
2023/10/16 11:15:11;;;;;;;;;;;;;;;17.12;68.43;102206.03;3983884;22;19928;-70
2023/10/16 11:17:39;;;;;;;;;;;;;;;16.84;68.17;102201.19;5073027;28;19927;-70
2023/10/16 11:22:45;;;;;;;;;;;;;;;16.58;68.86;102199.81;5093585;28;19920;-69
2023/10/16 11:25:14;;;;;;;;;;;;;;;16.54;71.77;102199.91;5075556;28;19946;-69
2023/10/16 11:27:43;;;;;;;;;;;;;;;16.42;70.38;102196.53;5093179;28;19916;-69
2023/10/16 11:30:18;;;;;;;;;;;;;;;16.27;69.76;102202.91;5074937;28;19912;-69
2023/10/16 11:32:45;;;;;;;;;;;;;;;16.17;70.98;102197.78;5067208;28;19971;-69
2023/10/16 11:35:18;;;;;;;;;;;;;;;15.87;67.99;102197.25;5073549;28;19916;-69
2023/10/16 11:37:59;;;;;;;;;;;;;;;15.45;70.53;102195.06;5059268;28;20019;-69
2023/10/16 11:40:32;;;;;;;;;;;;;;;15.06;71.79;102189.28;5067636;28;20026;-69
2023/10/16 11:43:04;;;;;;;;;;;;;;;14.80;72.17;102184.22;5046085;28;20398;-70
2023/10/16 11:45:33;;;;;;;;;;;;;;;14.56;72.47;102179.06;5062887;28;20394;-70
2023/10/16 11:51:05;;;;;;;;;;;;;;;14.20;71.00;102170.50;5092944;28;19923;-70
2023/10/16 11:53:31;;;;;;;;;;;;;;;14.05;72.28;102175.88;5065543;28;20436;-69
2023/10/16 11:55:57;;;;;;;;;;;;;;;13.89;72.02;102176.81;5050184;28;19970;-70
2023/10/16 11:58:22;;;;;;;;;;;;;;;13.78;71.78;102167.22;5093064;28;19963;-69
2023/10/16 12:00:57;;;;;;;;;;;;;;;13.67;71.87;102164.59;5068262;28;19944;-69
2023/10/16 12:03:26;;;;;;;;;;;;;;;13.61;73.79;102167.25;5073617;28;19920;-69
2023/10/16 12:05:52;;;;;;;;;;;;;;;13.47;72.98;102163.78;5073812;28;20449;-69
2023/10/16 12:08:18;;;;;;;;;;;;;;;13.38;73.19;102156.78;5073928;28;20064;-69
2023/10/16 12:10:47;;;;;;;;;;;;;;;13.32;75.71;102162.91;5075276;28;19912;-69
2023/10/16 12:13:16;;;;;;;;;;;;;;;13.25;75.61;102160.31;5075010;28;19917;-69
2023/10/16 12:15:43;;;;;;;;;;;;;;;13.20;74.38;102162.06;5086192;28;20299;-69
2023/10/16 12:18:09;;;;;;;;;;;;;;;13.15;74.28;102155.03;5067579;28;19924;-69
2023/10/16 12:20:37;;;;;;;;;;;;;;;13.10;75.62;102156.81;5054547;28;20303;-69
2023/10/16 12:23:03;;;;;;;;;;;;;;;13.04;74.89;102155.94;5084331;28;20021;-68
2023/10/16 12:25:30;;;;;;;;;;;;;;;12.94;73.63;102149.81;5057153;28;19916;-68
2023/10/16 12:27:55;;;;;;;;;;;;;;;12.91;73.62;102140.16;5068613;28;19967;-68
2023/10/16 12:30:21;;;;;;;;;;;;;;;12.97;73.68;102144.53;5074750;28;20044;-68
2023/10/16 12:32:47;;;;;;;;;;;;;;;13.07;71.19;102138.38;5061709;28;19928;-67
2023/10/16 12:35:13;;;;;;;;;;;;;;;13.13;71.86;102140.13;5055129;28;19978;-68
2023/10/16 12:37:39;;;;;;;;;;;;;;;13.27;72.21;102143.59;5056476;28;19924;-67
2023/10/16 12:40:24;;;;;;;;;;;;;;;13.29;70.83;102139.25;5073976;28;20304;-68
2023/10/16 12:42:53;;;;;;;;;;;;;;;13.31;70.96;102132.19;5072499;28;19981;-68
2023/10/16 12:45:20;;;;;;;;;;;;;;;13.30;70.02;102127.84;5056008;28;19920;-68
2023/10/16 12:47:46;;;;;;;;;;;;;;;13.43;70.38;102128.72;5057455;28;20019;-68
2023/10/16 12:50:11;;;;;;;;;;;;;;;13.36;70.43;102126.97;5071578;28;20363;-68
2023/10/16 12:52:39;;;;;;;;;;;;;;;13.31;70.02;102124.31;5092726;28;19916;-68
2023/10/16 12:55:09;;;;;;;;;;;;;;;13.29;70.12;102119.94;5063384;28;19920;-69
2023/10/16 12:57:34;;;;;;;;;;;;;;;13.25;69.57;102119.06;5057278;28;20296;-69
2023/10/16 13:00:00;;;;;;;;;;;;;;;13.37;69.07;102122.56;5058129;28;20011;-68
2023/10/16 13:02:28;;;;;;;;;;;;;;;13.40;69.74;102117.28;5057803;28;19916;-68
2023/10/16 13:04:55;;;;;;;;;;;;;;;13.38;70.57;102117.31;5057056;28;19928;-68
2023/10/16 13:07:26;;;;;;;;;;;;;;;13.40;70.43;102120.78;5074102;28;19995;-67
2023/10/16 13:09:53;;;;;;;;;;;;;;;13.35;70.71;102125.22;5073661;28;19927;-68
2023/10/16 13:12:21;;;;;;;;;;;;;;;13.37;70.21;102131.34;5051843;28;19916;-69
2023/10/16 13:14:49;;;;;;;;;;;;;;;13.40;70.41;102112.91;5049880;28;19925;-69
2023/10/16 13:17:15;;;;;;;;;;;;;;;13.45;69.56;102120.81;5069745;28;19935;-69
2023/10/16 13:19:41;;;;;;;;;;;;;;;13.42;70.72;102120.78;5052487;28;20011;-69
2023/10/16 13:22:12;;;;;;;;;;;;;;;13.48;68.36;102121.66;5053878;28;20027;-69
2023/10/16 13:24:42;;;;;;;;;;;;;;;13.64;70.36;102111.94;5048505;28;20272;-69
2023/10/16 13:27:09;;;;;;;;;;;;;;;13.93;70.68;102103.00;5069244;28;19952;-68
2023/10/16 13:29:38;;;;;;;;;;;;;;;14.19;70.34;102100.25;5049897;28;19916;-68
2023/10/16 13:32:03;;;;;;;;;;;;;;;14.40;70.15;102098.31;5065433;28;19916;-68
2023/10/16 13:34:29;;;;;;;;;;;;;;;14.44;69.51;102101.78;5069267;28;19920;-68
2023/10/16 13:37:01;;;;;;;;;;;;;;;14.45;70.20;102101.81;5049172;28;19966;-68
2023/10/16 13:39:31;;;;;;;;;;;;;;;14.54;69.35;102103.50;5044735;28;19920;-68
2023/10/16 13:41:57;;;;;;;;;;;;;;;14.49;69.69;102100.88;5049062;28;19967;-68
2023/10/16 13:44:24;;;;;;;;;;;;;;;14.51;69.29;102101.75;5081802;28;19959;-68
2023/10/16 13:46:53;;;;;;;;;;;;;;;14.43;67.48;102098.28;5052774;28;19916;-67
2023/10/16 13:49:19;;;;;;;;;;;;;;;14.24;67.09;102097.56;5064577;28;20345;-67
2023/10/16 13:51:45;;;;;;;;;;;;;;;13.90;67.13;102097.75;5066042;28;20019;-68
2023/10/16 13:54:14;;;;;;;;;;;;;;;13.72;70.69;102101.38;5051856;28;20237;-68
2023/10/16 13:56:39;;;;;;;;;;;;;;;13.51;67.99;102105.84;5062667;28;19924;-68
2023/10/16 13:59:06;;;;;;;;;;;;;;;13.46;71.16;102089.19;5052539;28;19973;-68
2023/10/16 14:01:31;;;;;;;;;;;;;;;13.30;70.21;102090.97;5053839;28;20400;-67
2023/10/16 14:03:58;;;;;;;;;;;;;;;13.18;71.64;102091.88;5058863;28;20007;-69
2023/10/16 14:06:25;;;;;;;;;;;;;;;13.17;71.73;102086.59;5051473;28;19928;-69
2023/10/16 14:08:51;;;;;;;;;;;;;;;13.09;70.75;102086.63;5068108;28;19916;-69
2023/10/16 14:11:17;;;;;;;;;;;;;;;13.00;70.36;102087.53;5062507;28;19931;-68
2023/10/16 14:13:42;;;;;;;;;;;;;;;12.97;72.24;102084.03;5072201;28;19916;-68
2023/10/16 14:16:11;;;;;;;;;;;;;;;12.90;72.14;102079.66;5069112;28;19927;-68
2023/10/16 14:18:42;;;;;;;;;;;;;;;12.85;71.29;102084.06;5062094;28;19928;-68
2023/10/16 14:21:11;;;;;;;;;;;;;;;12.85;72.52;102082.28;5073465;28;19923;-69
2023/10/16 14:23:38;;;;;;;;;;;;;;;12.78;71.87;102070.03;5053384;28;19921;-69
2023/10/16 14:26:10;;;;;;;;;;;;;;;12.67;71.18;102075.31;5068154;28;19997;-69
2023/10/16 14:28:50;;;;;;;;;;;;;;;12.68;71.77;102070.91;5072600;28;20050;-69
2023/10/16 14:31:20;;;;;;;;;;;;;;;12.67;70.43;102077.94;5066896;28;19916;-67
2023/10/16 14:33:46;;;;;;;;;;;;;;;12.71;70.25;102069.16;5055072;28;19985;-67
2023/10/16 14:36:16;;;;;;;;;;;;;;;12.71;68.34;102074.41;5062817;28;20379;-67
2023/10/16 14:38:42;;;;;;;;;;;;;;;12.71;70.62;102066.53;5055168;28;20014;-67
2023/10/16 14:41:15;;;;;;;;;;;;;;;12.72;71.34;102076.16;5050790;28;20390;-67
2023/10/16 14:43:41;;;;;;;;;;;;;;;12.75;70.03;102075.31;5056763;28;19943;-67
2023/10/16 14:46:10;;;;;;;;;;;;;;;12.66;70.10;102070.94;5052211;28;19928;-67
2023/10/16 14:48:42;;;;;;;;;;;;;;;12.62;71.34;102062.16;5054764;28;20371;-67
2023/10/16 14:51:13;;;;;;;;;;;;;;;12.59;69.74;102069.19;5056727;28;19916;-67
2023/10/16 14:53:43;;;;;;;;;;;;;;;12.44;70.22;102056.91;5052429;28;19927;-67
2023/10/16 14:56:09;;;;;;;;;;;;;;;12.35;71.34;102055.16;5085362;28;19971;-67
2023/10/16 14:58:36;;;;;;;;;;;;;;;12.26;71.37;102061.28;5068981;28;19931;-67
2023/10/16 15:01:14;;;;;;;;;;;;;;;12.16;69.27;102058.66;5073058;28;19920;-67
2023/10/16 15:03:40;;;;;;;;;;;;;;;12.08;70.77;102053.38;5072535;28;19912;-67
2023/10/16 15:06:08;;;;;;;;;;;;;;;12.05;71.73;102056.91;5059803;28;19920;-67
2023/10/16 15:08:37;;;;;;;;;;;;;;;11.99;71.26;102046.34;5076259;28;19979;-67
2023/10/16 15:11:03;;;;;;;;;;;;;;;11.98;71.69;102049.84;5069926;28;19974;-67
2023/10/16 15:13:28;;;;;;;;;;;;;;;11.95;72.53;102041.97;5058489;28;20333;-67
2023/10/16 15:15:56;;;;;;;;;;;;;;;11.91;72.99;102045.41;5059347;28;20106;-68
2023/10/16 15:18:23;;;;;;;;;;;;;;;11.86;72.08;102039.31;5072509;28;19920;-67
2023/10/16 15:20:49;;;;;;;;;;;;;;;11.84;72.38;102041.94;5076401;28;19988;-67
2023/10/16 15:23:14;;;;;;;;;;;;;;;11.83;73.19;102044.56;5085779;28;20366;-67
2023/10/16 15:25:45;;;;;;;;;;;;;;;11.79;72.94;102041.91;5064567;28;19920;-67
2023/10/16 15:28:10;;;;;;;;;;;;;;;11.78;73.65;102039.28;5075258;28;19973;-68
2023/10/16 15:30:36;;;;;;;;;;;;;;;11.78;73.83;102049.78;5059580;28;19923;-68
2023/10/16 15:33:02;;;;;;;;;;;;;;;11.78;73.84;102041.91;5074090;28;20002;-67
2023/10/16 15:35:32;;;;;;;;;;;;;;;11.76;74.18;102049.75;5091930;28;19970;-68
2023/10/16 15:37:58;;;;;;;;;;;;;;;11.74;74.69;102040.16;5059624;28;19924;-68
2023/10/16 15:40:26;;;;;;;;;;;;;;;11.68;74.73;102041.00;5059259;28;19916;-68